Time;durP1;ratioP1;P1;durP2;ratioP2;P2;SDS_P1;SDS_P2;PMS_P1;PMS_P2;Temp;Humidity;BMP_temperature;BMP_pressure;BME280_temperature;BME280_humidity;BME280_pressure;Samples;Min_cycle;Max_cycle;Signal;HPM_P1;HPM_P2
2023/09/02 00:00:34;;;;;;;8.63;2.70;;;23.80;92.50;;;;;;7402667;19;19918;-72
2023/09/02 00:03:00;;;;;;;6.30;2.90;;;23.80;92.70;;;;;;7401220;19;19927;-72
2023/09/02 00:05:26;;;;;;;7.80;2.60;;;23.80;92.80;;;;;;7400084;19;19933;-73
2023/09/02 00:07:52;;;;;;;9.52;3.00;;;23.80;92.80;;;;;;7404568;19;19930;-72
2023/09/02 00:10:17;;;;;;;9.43;2.72;;;23.80;92.90;;;;;;7398875;19;20398;-72
2023/09/02 00:12:43;;;;;;;7.38;3.00;;;23.70;93.20;;;;;;7403309;19;19919;-72
2023/09/02 00:15:09;;;;;;;6.93;2.55;;;23.70;93.30;;;;;;7399103;19;19947;-72
2023/09/02 00:17:35;;;;;;;5.32;2.40;;;23.60;93.40;;;;;;7403909;19;19923;-71
2023/09/02 00:20:05;;;;;;;7.65;2.28;;;23.60;93.50;;;;;;7402697;19;19911;-72
2023/09/02 00:22:32;;;;;;;9.45;2.33;;;23.60;93.60;;;;;;7401608;19;19926;-72
2023/09/02 00:24:58;;;;;;;8.20;2.70;;;23.60;93.70;;;;;;7403481;19;19911;-71
2023/09/02 00:27:24;;;;;;;7.20;2.58;;;23.60;93.80;;;;;;7403410;19;19990;-71
2023/09/02 00:29:50;;;;;;;7.68;2.38;;;23.60;93.80;;;;;;7402504;19;19922;-71
2023/09/02 00:32:16;;;;;;;4.90;2.22;;;23.60;93.70;;;;;;7403114;19;19974;-72
2023/09/02 00:34:42;;;;;;;8.27;2.72;;;23.60;93.80;;;;;;7402946;19;20006;-72
2023/09/02 00:37:08;;;;;;;6.45;2.30;;;23.70;93.70;;;;;;7401667;19;20379;-72
2023/09/02 00:39:34;;;;;;;7.75;2.45;;;23.70;93.60;;;;;;7404875;19;20002;-73
2023/09/02 00:42:01;;;;;;;7.18;2.50;;;23.70;93.50;;;;;;7402556;19;19918;-72
2023/09/02 00:44:27;;;;;;;8.48;3.05;;;23.80;93.40;;;;;;7401155;19;19911;-72
2023/09/02 00:46:53;;;;;;;10.07;3.03;;;23.90;93.30;;;;;;7401268;19;20392;-72
2023/09/02 00:49:19;;;;;;;9.95;2.67;;;23.90;93.00;;;;;;7402440;19;19954;-71
2023/09/02 00:51:45;;;;;;;5.88;2.30;;;24.00;92.80;;;;;;7403116;19;20290;-71
2023/09/02 00:54:11;;;;;;;8.00;2.40;;;24.00;92.60;;;;;;7401487;19;19926;-71
2023/09/02 00:56:39;;;;;;;7.13;2.20;;;24.00;92.40;;;;;;7401720;19;19933;-71
2023/09/02 00:59:06;;;;;;;6.90;2.13;;;24.10;92.30;;;;;;7379883;19;19940;-71
2023/09/02 01:01:32;;;;;;;;;;;24.00;92.20;;;;;;7405910;19;19974;-72
2023/09/02 01:03:59;;;;;;;8.00;2.42;;;24.10;92.20;;;;;;7402828;19;19918;-71
2023/09/02 01:06:25;;;;;;;;;;;24.00;92.10;;;;;;7401563;19;19914;-72
2023/09/02 01:08:51;;;;;;;7.50;2.40;;;24.10;92.10;;;;;;7404137;19;19934;-71
2023/09/02 01:11:16;;;;;;;6.55;2.40;;;24.10;92.10;;;;;;7400805;19;19947;-71
2023/09/02 01:13:42;;;;;;;6.85;2.83;;;24.10;92.10;;;;;;7399544;19;19918;-71
2023/09/02 01:16:08;;;;;;;10.60;3.42;;;24.00;92.10;;;;;;7401936;19;19941;-71
2023/09/02 01:18:36;;;;;;;6.75;2.58;;;24.00;92.20;;;;;;7402953;19;19923;-71
2023/09/02 01:21:14;;;;;;;9.40;3.00;;;24.00;92.20;;;;;;7399564;19;20339;-72
2023/09/02 01:24:22;;;;;;;7.18;2.60;;;24.00;92.20;;;;;;7401253;19;20614;-71
2023/09/02 01:27:06;;;;;;;6.90;2.60;;;24.00;92.40;;;;;;7402210;19;20540;-71
2023/09/02 01:29:34;;;;;;;;;;;23.90;92.50;;;;;;7402600;19;20334;-72
2023/09/02 01:32:01;;;;;;;8.43;2.85;;;23.90;92.60;;;;;;7400308;19;20576;-71
2023/09/02 01:34:30;;;;;;;6.47;2.53;;;23.90;92.70;;;;;;7400537;19;19927;-71
2023/09/02 01:36:59;;;;;;;9.45;2.53;;;23.90;92.80;;;;;;7403350;19;19956;-72
2023/09/02 01:39:26;;;;;;;7.82;2.90;;;23.90;92.80;;;;;;7401316;19;19930;-71
2023/09/02 01:41:53;;;;;;;9.82;3.50;;;23.90;92.90;;;;;;7402871;19;20283;-72
2023/09/02 01:44:20;;;;;;;5.82;2.55;;;23.80;92.90;;;;;;7398945;19;19926;-70
2023/09/02 01:46:47;;;;;;;;;;;23.80;93.00;;;;;;7403588;19;19914;-71
2023/09/02 01:49:13;;;;;;;8.20;2.58;;;23.80;93.10;;;;;;7400590;19;19938;-71
2023/09/02 01:51:40;;;;;;;7.55;2.33;;;23.80;93.20;;;;;;7402242;19;19926;-72
2023/09/02 01:54:07;;;;;;;6.45;2.85;;;23.80;93.20;;;;;;7398638;19;19934;-72
2023/09/02 01:56:32;;;;;;;;;;;23.80;93.10;;;;;;7405004;19;19915;-72
2023/09/02 01:58:59;;;;;;;8.77;2.58;;;23.80;93.10;;;;;;7402142;19;19961;-72
2023/09/02 02:01:25;;;;;;;7.95;2.70;;;23.80;93.00;;;;;;7400245;19;19918;-72
2023/09/02 02:04:18;;;;;;;5.85;2.53;;;23.80;93.00;;;;;;7402904;19;19923;-72
2023/09/02 02:06:47;;;;;;;7.13;2.85;;;23.80;93.00;;;;;;7401485;19;19922;-70
2023/09/02 02:09:15;;;;;;;9.48;2.65;;;23.80;93.00;;;;;;7399225;19;19919;-72
2023/09/02 02:11:44;;;;;;;6.15;2.35;;;23.80;93.10;;;;;;7398314;19;19978;-72
2023/09/02 02:14:10;;;;;;;6.90;2.53;;;23.70;93.20;;;;;;7398684;19;20289;-72
2023/09/02 02:16:36;;;;;;;9.60;2.78;;;23.70;93.40;;;;;;7402892;19;19922;-72
2023/09/02 02:19:02;;;;;;;7.28;2.63;;;23.70;93.50;;;;;;7402225;19;19929;-73
2023/09/02 02:21:29;;;;;;;6.90;2.50;;;23.60;93.80;;;;;;7401384;19;19919;-72
2023/09/02 02:23:56;;;;;;;5.60;2.45;;;23.50;93.90;;;;;;7401073;19;20042;-72
2023/09/02 02:26:22;;;;;;;6.45;2.72;;;23.50;94.10;;;;;;7399240;19;20031;-71
2023/09/02 02:28:48;;;;;;;6.55;2.78;;;23.50;94.20;;;;;;7393935;19;19990;-72
2023/09/02 02:31:14;;;;;;;8.38;2.80;;;23.50;94.30;;;;;;7397656;19;19911;-72
2023/09/02 02:33:40;;;;;;;7.80;3.00;;;23.50;94.30;;;;;;7401759;19;20630;-71
2023/09/02 02:36:09;;;;;;;7.93;2.65;;;23.40;94.40;;;;;;7397073;19;20284;-72
2023/09/02 02:38:36;;;;;;;5.28;2.42;;;23.40;94.40;;;;;;7400676;19;19978;-71
2023/09/02 02:41:02;;;;;;;8.40;2.90;;;23.40;94.60;;;;;;7402372;19;19922;-72
2023/09/02 02:43:28;;;;;;;6.65;2.53;;;23.30;94.80;;;;;;7402008;19;19929;-72
2023/09/02 02:45:54;;;;;;;;;;;23.30;94.80;;;;;;7403937;19;19911;-72
2023/09/02 02:48:26;;;;;;;8.40;2.60;;;23.40;94.80;;;;;;7399177;19;19925;-72
2023/09/02 02:50:52;;;;;;;8.02;3.15;;;23.40;94.80;;;;;;7402033;19;19922;-72
2023/09/02 02:53:17;;;;;;;6.50;2.63;;;23.30;94.90;;;;;;7398288;19;19936;-72
2023/09/02 02:55:43;;;;;;;6.50;2.63;;;23.40;94.90;;;;;;7399758;19;19994;-73
2023/09/02 02:58:11;;;;;;;9.55;2.97;;;23.40;94.90;;;;;;7397451;19;20338;-72
2023/09/02 03:00:39;;;;;;;7.97;2.72;;;23.40;94.90;;;;;;7400631;19;19914;-72
2023/09/02 03:03:07;;;;;;;5.85;2.63;;;23.40;94.80;;;;;;7397404;19;19915;-73
2023/09/02 03:05:40;;;;;;;7.85;2.65;;;23.40;94.80;;;;;;7399468;19;19970;-72
2023/09/02 03:08:07;;;;;;;7.97;2.70;;;23.40;94.90;;;;;;7396941;19;19915;-72
2023/09/02 03:10:36;;;;;;;5.78;2.58;;;23.40;95.10;;;;;;7400341;19;19915;-72
2023/09/02 03:13:03;;;;;;;7.97;2.63;;;23.30;95.10;;;;;;7399371;19;19918;-73
2023/09/02 03:15:29;;;;;;;6.32;2.42;;;23.30;95.30;;;;;;7397251;19;19944;-72
2023/09/02 03:17:55;;;;;;;6.80;2.50;;;23.20;95.40;;;;;;7399321;19;19911;-72
2023/09/02 03:20:21;;;;;;;6.28;2.55;;;23.20;95.70;;;;;;7394849;19;19918;-72
2023/09/02 03:22:47;;;;;;;8.63;3.13;;;23.20;95.90;;;;;;7402188;19;19918;-72
2023/09/02 03:25:14;;;;;;;7.45;3.05;;;23.10;96.10;;;;;;7401013;19;20022;-71
2023/09/02 03:27:40;;;;;;;9.02;2.85;;;23.10;96.20;;;;;;7407132;19;20251;-72
2023/09/02 03:30:07;;;;;;;8.07;3.00;;;23.10;96.30;;;;;;7396992;19;20354;-72
2023/09/02 03:32:34;;;;;;;7.07;2.70;;;23.00;96.40;;;;;;7406390;19;19915;-72
2023/09/02 03:35:00;;;;;;;6.68;2.47;;;23.00;96.50;;;;;;7401413;19;20274;-72
2023/09/02 03:37:26;;;;;;;5.72;2.53;;;23.00;96.80;;;;;;7403168;19;19926;-73
2023/09/02 03:39:57;;;;;;;6.72;2.35;;;22.90;96.80;;;;;;7400493;19;19922;-72
2023/09/02 03:42:23;;;;;;;7.53;3.00;;;22.90;96.90;;;;;;7401650;19;19934;-72
2023/09/02 03:44:48;;;;;;;9.93;3.10;;;22.90;97.10;;;;;;7401892;19;19918;-71
2023/09/02 03:47:14;;;;;;;7.47;3.05;;;22.90;97.20;;;;;;7402150;19;19978;-71
2023/09/02 03:49:40;;;;;;;6.18;2.72;;;22.90;97.30;;;;;;7404609;19;19923;-72
2023/09/02 03:52:06;;;;;;;8.05;2.83;;;22.90;97.30;;;;;;7403997;19;19921;-72
2023/09/02 03:54:32;;;;;;;6.00;2.42;;;22.80;97.40;;;;;;7403052;19;19914;-73
2023/09/02 03:56:58;;;;;;;7.22;2.70;;;22.80;97.60;;;;;;7400477;19;19921;-72
2023/09/02 03:59:24;;;;;;;9.63;3.50;;;22.80;97.70;;;;;;7402628;19;19925;-72
2023/09/02 04:01:50;;;;;;;9.43;3.20;;;22.80;97.70;;;;;;7399997;19;19914;-71
2023/09/02 04:04:16;;;;;;;8.27;2.95;;;22.80;97.80;;;;;;7403219;19;19915;-72
2023/09/02 04:06:42;;;;;;;9.48;3.03;;;22.90;97.80;;;;;;7371121;19;19923;-72
2023/09/02 04:09:07;;;;;;;6.85;2.40;;;22.90;97.70;;;;;;7404111;19;19985;-71
2023/09/02 04:11:33;;;;;;;7.55;2.55;;;22.90;97.60;;;;;;7404775;19;19921;-72
2023/09/02 04:14:00;;;;;;;6.80;3.08;;;22.90;97.50;;;;;;7403715;19;19918;-72
2023/09/02 04:16:26;;;;;;;7.18;2.60;;;22.90;97.70;;;;;;7403229;19;19918;-72
2023/09/02 04:18:52;;;;;;;8.07;2.80;;;22.90;97.80;;;;;;7405423;19;19921;-71
2023/09/02 04:21:18;;;;;;;6.55;2.72;;;22.90;97.90;;;;;;7370273;19;19986;-71
2023/09/02 04:23:44;;;;;;;13.82;2.90;;;22.90;97.90;;;;;;7407020;19;19944;-71
2023/09/02 04:26:11;;;;;;;8.73;2.92;;;22.90;97.90;;;;;;7402486;19;20236;-70
2023/09/02 04:28:37;;;;;;;7.47;2.85;;;22.90;98.00;;;;;;7404055;19;19915;-71
2023/09/02 04:31:03;;;;;;;9.25;2.70;;;22.90;98.10;;;;;;7400252;19;20284;-71
2023/09/02 04:33:29;;;;;;;8.05;3.05;;;23.00;98.00;;;;;;7397718;19;19941;-71
2023/09/02 04:35:55;;;;;;;7.22;2.22;;;23.00;98.00;;;;;;7402257;19;19930;-72
2023/09/02 04:38:20;;;;;;;8.43;2.67;;;23.00;98.00;;;;;;7399294;19;19949;-71
2023/09/02 04:40:46;;;;;;;9.73;2.45;;;23.00;98.10;;;;;;7403524;19;19918;-71
2023/09/02 04:43:13;;;;;;;7.28;2.35;;;23.00;98.00;;;;;;7400693;19;19926;-71
2023/09/02 04:45:40;;;;;;;9.52;2.60;;;23.00;98.10;;;;;;7403629;19;19914;-71
2023/09/02 04:48:08;;;;;;;7.80;2.40;;;23.00;98.00;;;;;;7399647;19;20433;-71
2023/09/02 04:50:35;;;;;;;6.30;2.67;;;23.10;98.00;;;;;;7402514;19;19918;-70
2023/09/02 04:53:02;;;;;;;10.27;2.83;;;23.10;97.90;;;;;;7402947;19;19925;-72
2023/09/02 04:55:29;;;;;;;6.03;2.15;;;23.10;97.90;;;;;;7402489;19;19931;-71
2023/09/02 04:57:56;;;;;;;8.95;2.40;;;23.10;97.90;;;;;;7401220;19;20313;-71
2023/09/02 05:00:29;;;;;;;8.85;2.33;;;23.10;97.90;;;;;;7399957;19;20932;-71
2023/09/02 05:02:55;;;;;;;7.47;2.40;;;23.10;97.90;;;;;;7401597;19;19915;-71
2023/09/02 05:05:22;;;;;;;8.00;2.45;;;23.00;97.80;;;;;;7401595;19;19923;-72
2023/09/02 05:07:49;;;;;;;6.38;1.92;;;23.00;97.90;;;;;;7404458;19;19982;-71
2023/09/02 05:10:15;;;;;;;;;;;23.00;98.00;;;;;;7403942;19;19935;-72
2023/09/02 05:12:41;;;;;;;10.20;2.42;;;22.90;98.10;;;;;;7404352;19;19918;-71
2023/09/02 05:15:08;;;;;;;7.47;2.47;;;22.90;98.30;;;;;;7402503;19;19966;-71
2023/09/02 05:17:34;;;;;;;8.98;2.50;;;22.90;98.40;;;;;;7404147;19;19914;-71
2023/09/02 05:20:01;;;;;;;7.85;2.72;;;22.80;98.50;;;;;;7401638;19;19929;-71
2023/09/02 05:22:27;;;;;;;9.80;2.60;;;22.80;98.60;;;;;;7403922;19;20629;-72
2023/09/02 05:24:53;;;;;;;7.10;2.58;;;22.70;98.80;;;;;;7400956;19;19914;-71
2023/09/02 05:27:19;;;;;;;8.10;2.50;;;22.80;99.00;;;;;;7400885;19;19974;-71
2023/09/02 05:29:45;;;;;;;6.53;2.63;;;22.70;98.80;;;;;;7401648;19;19918;-71
2023/09/02 05:32:13;;;;;;;8.98;2.80;;;22.80;98.80;;;;;;7401642;19;19970;-71
2023/09/02 05:34:40;;;;;;;6.70;2.30;;;22.70;98.80;;;;;;7398245;19;19922;-71
2023/09/02 05:37:05;;;;;;;;;;;22.70;98.80;;;;;;7402492;19;19919;-72
2023/09/02 05:39:31;;;;;;;8.43;2.50;;;22.70;98.80;;;;;;7402242;19;20354;-71
2023/09/02 05:41:57;;;;;;;7.47;2.60;;;22.80;98.70;;;;;;7401183;19;19910;-71
2023/09/02 05:44:23;;;;;;;9.15;2.75;;;22.80;98.50;;;;;;7400080;19;19918;-72
2023/09/02 05:46:49;;;;;;;6.18;2.30;;;22.90;98.30;;;;;;7399736;19;19933;-71
2023/09/02 05:49:15;;;;;;;10.13;3.00;;;23.00;97.90;;;;;;7401019;19;19918;-72
2023/09/02 05:51:41;;;;;;;7.57;2.35;;;23.10;97.40;;;;;;7401445;19;19933;-71
2023/09/02 05:54:09;;;;;;;11.93;2.67;;;23.20;97.20;;;;;;7400356;19;20007;-71
2023/09/02 05:56:38;;;;;;;9.55;2.47;;;23.20;96.60;;;;;;7397377;19;19914;-70
2023/09/02 05:59:04;;;;;;;7.10;2.30;;;23.30;96.30;;;;;;7399644;19;19911;-71
2023/09/02 06:01:31;;;;;;;9.13;2.25;;;23.40;95.80;;;;;;7401455;19;19925;-72
2023/09/02 06:03:57;;;;;;;8.18;2.15;;;23.50;95.20;;;;;;7403148;19;19906;-72
2023/09/02 06:06:23;;;;;;;7.03;2.58;;;23.60;94.90;;;;;;7400777;19;19922;-72
2023/09/02 06:08:49;;;;;;;6.63;2.72;;;23.70;94.50;;;;;;7403768;19;19930;-71
2023/09/02 06:11:15;;;;;;;8.43;2.88;;;23.80;94.10;;;;;;7400719;19;20362;-71
2023/09/02 06:13:41;;;;;;;7.88;2.45;;;23.90;93.80;;;;;;7400352;19;19947;-71
2023/09/02 06:16:07;;;;;;;6.88;2.30;;;24.00;93.30;;;;;;7401368;19;19923;-73
2023/09/02 06:18:34;;;;;;;;;;;24.10;92.70;;;;;;7404186;19;19949;-71
2023/09/02 06:21:07;;;;;;;8.65;3.00;;;24.20;92.60;;;;;;7399335;19;20359;-71
2023/09/02 06:23:33;;;;;;;9.50;2.33;;;24.20;92.30;;;;;;7399961;19;20636;-72
2023/09/02 06:26:00;;;;;;;8.35;2.50;;;24.30;92.00;;;;;;7402909;19;19918;-71
2023/09/02 06:28:27;;;;;;;6.88;2.13;;;24.30;91.80;;;;;;7397887;19;19929;-72
2023/09/02 06:30:53;;;;;;;6.53;2.28;;;24.50;91.50;;;;;;7403008;19;19978;-71
2023/09/02 06:33:20;;;;;;;;;;;24.50;91.20;;;;;;7401947;19;19933;-71
2023/09/02 06:35:46;;;;;;;8.93;2.33;;;24.60;90.70;;;;;;7402822;19;19918;-71
2023/09/02 06:38:12;;;;;;;11.52;2.22;;;24.60;90.30;;;;;;7399732;19;19941;-71
2023/09/02 06:40:38;;;;;;;7.03;2.20;;;24.70;90.00;;;;;;7400351;19;19922;-71
2023/09/02 06:43:04;;;;;;;6.68;2.45;;;24.70;90.00;;;;;;7403149;19;19922;-71
2023/09/02 06:45:29;;;;;;;10.23;2.63;;;24.80;89.40;;;;;;7405797;19;20609;-72
2023/09/02 06:47:55;;;;;;;8.05;2.22;;;24.90;88.90;;;;;;7403748;19;19947;-72
2023/09/02 06:50:21;;;;;;;6.53;2.03;;;24.90;87.80;;;;;;7396919;19;19915;-71
2023/09/02 06:52:47;;;;;;;5.20;2.20;;;24.90;87.70;;;;;;7400343;19;19918;-71
2023/09/02 06:55:15;;;;;;;5.35;1.65;;;25.00;86.90;;;;;;7398204;19;19923;-72
2023/09/02 06:57:44;;;;;;;7.22;1.98;;;25.10;85.50;;;;;;7399489;19;19922;-72
2023/09/02 07:00:11;;;;;;;7.20;1.95;;;25.20;84.80;;;;;;7398631;19;19926;-72
2023/09/02 07:02:37;;;;;;;10.15;2.13;;;25.30;83.80;;;;;;7401627;19;19915;-72
2023/09/02 07:05:03;;;;;;;8.65;2.15;;;25.30;83.30;;;;;;7398090;19;19940;-71
2023/09/02 07:07:29;;;;;;;6.47;1.65;;;25.30;82.40;;;;;;7401543;19;19957;-72
2023/09/02 07:09:55;;;;;;;6.32;1.70;;;25.30;81.80;;;;;;7398563;19;19923;-72
2023/09/02 07:12:21;;;;;;;5.15;1.40;;;25.20;82.10;;;;;;7396443;19;19910;-71
2023/09/02 07:14:47;;;;;;;8.20;2.35;;;25.20;82.30;;;;;;7399681;19;19915;-71
2023/09/02 07:17:13;;;;;;;5.97;1.67;;;25.30;82.50;;;;;;7398266;19;20250;-71
2023/09/02 07:19:39;;;;;;;6.18;2.35;;;25.40;82.30;;;;;;7399734;19;20327;-72
2023/09/02 07:22:04;;;;;;;7.50;2.10;;;25.50;81.50;;;;;;7398623;19;19918;-72
2023/09/02 07:24:30;;;;;;;11.70;2.28;;;25.80;80.70;;;;;;7398748;19;19915;-72
2023/09/02 07:26:56;;;;;;;6.45;1.67;;;25.90;80.10;;;;;;7400494;19;19919;-72
2023/09/02 07:29:22;;;;;;;5.55;1.65;;;25.90;79.20;;;;;;7398543;19;25090;-71
2023/09/02 07:31:47;;;;;;;5.72;1.52;;;25.90;78.00;;;;;;7401464;19;19997;-72
2023/09/02 07:34:14;;;;;;;6.03;1.55;;;25.70;77.40;;;;;;7397336;19;19911;-72
2023/09/02 07:36:41;;;;;;;5.43;1.50;;;25.80;76.20;;;;;;7396477;19;19914;-72
2023/09/02 07:39:07;;;;;;;5.50;1.30;;;25.80;77.00;;;;;;7399293;19;19910;-72
2023/09/02 07:41:33;;;;;;;4.95;1.48;;;26.00;77.10;;;;;;7400845;19;20048;-73
2023/09/02 07:43:58;;;;;;;7.05;1.92;;;26.00;77.70;;;;;;7399372;19;20391;-72
2023/09/02 07:46:24;;;;;;;6.68;1.88;;;25.90;77.60;;;;;;7367662;19;19933;-73
2023/09/02 07:48:51;;;;;;;6.20;2.10;;;25.80;78.20;;;;;;7399523;19;19919;-73
2023/09/02 07:51:17;;;;;;;;;;;25.90;78.40;;;;;;7401704;19;19924;-72
2023/09/02 07:53:43;;;;;;;5.20;1.85;;;26.10;77.20;;;;;;7397997;19;20362;-71
2023/09/02 07:56:09;;;;;;;7.10;1.90;;;26.00;75.90;;;;;;7397283;19;19922;-72
2023/09/02 07:58:35;;;;;;;5.15;1.83;;;25.90;75.60;;;;;;7399844;19;20342;-71
2023/09/02 08:01:00;;;;;;;6.22;2.22;;;26.00;75.90;;;;;;7389473;19;19946;-72
2023/09/02 08:03:27;;;;;;;4.90;1.88;;;26.20;75.70;;;;;;7392396;19;19940;-71
2023/09/02 08:05:53;;;;;;;6.68;1.70;;;26.30;75.60;;;;;;7393302;19;19915;-71
2023/09/02 08:08:19;;;;;;;6.88;2.05;;;26.40;75.60;;;;;;7394513;19;19953;-72
2023/09/02 08:10:45;;;;;;;7.28;1.80;;;26.50;75.50;;;;;;7399702;19;20256;-72
2023/09/02 08:13:11;;;;;;;4.53;1.67;;;26.40;75.00;;;;;;7388668;19;20009;-73
2023/09/02 08:15:40;;;;;;;9.65;2.53;;;26.60;75.70;;;;;;7399489;19;19918;-72
2023/09/02 08:18:06;;;;;;;6.00;2.10;;;26.50;75.80;;;;;;7405190;19;19926;-72
2023/09/02 08:20:33;;;;;;;6.80;2.30;;;26.30;76.70;;;;;;7401280;19;19994;-72
2023/09/02 08:22:59;;;;;;;4.28;1.70;;;26.50;76.70;;;;;;7404584;19;19923;-72
2023/09/02 08:25:25;;;;;;;5.57;1.77;;;26.70;76.00;;;;;;7400626;19;19926;-73
2023/09/02 08:27:51;;;;;;;6.45;2.80;;;27.00;74.90;;;;;;7404464;19;19919;-73
2023/09/02 08:30:17;;;;;;;6.53;1.95;;;27.10;73.90;;;;;;7403998;19;19921;-72
2023/09/02 08:32:42;;;;;;;5.38;3.05;;;27.10;73.20;;;;;;7395452;19;19941;-73
2023/09/02 08:35:09;;;;;;;5.22;2.20;;;27.10;72.80;;;;;;7397455;19;19934;-72
2023/09/02 08:37:37;;;;;;;6.97;1.92;;;27.00;72.80;;;;;;7392479;19;19934;-72
2023/09/02 08:40:03;;;;;;;4.93;1.65;;;26.90;71.90;;;;;;7400448;19;20026;-73
2023/09/02 08:42:32;;;;;;;10.63;2.08;;;27.00;71.40;;;;;;7400510;19;19919;-72
2023/09/02 08:45:02;;;;;;;5.72;1.73;;;27.40;70.50;;;;;;7394528;19;19945;-72
2023/09/02 08:47:32;;;;;;;6.60;2.97;;;27.50;70.10;;;;;;7401280;19;19917;-73
2023/09/02 08:49:58;;;;;;;5.38;2.03;;;27.50;69.40;;;;;;7400190;19;19918;-73
2023/09/02 08:52:25;;;;;;;7.78;1.98;;;27.70;69.70;;;;;;7396928;19;19949;-72
2023/09/02 08:54:53;;;;;;;7.50;1.88;;;27.70;69.20;;;;;;7397677;19;20330;-72
2023/09/02 08:57:19;;;;;;;6.20;1.80;;;27.40;69.80;;;;;;7369704;19;19945;-73
2023/09/02 08:59:45;;;;;;;7.28;2.33;;;27.40;70.20;;;;;;7404900;19;19928;-73
2023/09/02 09:02:12;;;;;;;4.05;1.75;;;27.40;69.80;;;;;;7399043;19;20411;-74
2023/09/02 09:04:38;;;;;;;7.32;2.70;;;27.30;70.20;;;;;;7403167;19;19917;-73
2023/09/02 09:07:06;;;;;;;6.50;2.65;;;27.20;71.10;;;;;;7398798;19;19982;-73
2023/09/02 09:09:37;;;;;;;6.90;2.58;;;27.20;71.10;;;;;;7403751;19;19911;-72
2023/09/02 09:12:06;;;;;;;6.38;3.22;;;27.20;70.70;;;;;;7397969;19;19927;-73
2023/09/02 09:14:35;;;;;;;6.45;2.30;;;27.50;70.30;;;;;;7371622;19;19958;-72
2023/09/02 09:17:01;;;;;;;5.65;2.13;;;27.60;70.30;;;;;;7402076;19;19924;-72
2023/09/02 09:19:27;;;;;;;9.15;2.78;;;27.70;69.90;;;;;;7399930;19;19915;-73
2023/09/02 09:21:57;;;;;;;8.02;1.77;;;27.90;68.80;;;;;;7399431;19;20354;-73
2023/09/02 09:24:23;;;;;;;7.07;2.55;;;27.50;69.30;;;;;;7400745;19;19930;-73
2023/09/02 09:26:50;;;;;;;6.10;2.40;;;27.40;70.60;;;;;;7400385;19;19945;-73
2023/09/02 09:29:18;;;;;;;5.68;2.20;;;27.20;70.80;;;;;;7399756;19;20453;-73
2023/09/02 09:31:44;;;;;;;6.68;1.70;;;27.30;70.80;;;;;;7398881;19;20609;-73
2023/09/02 09:34:10;;;;;;;;;;;27.30;70.80;;;;;;7380623;19;19914;-73
2023/09/02 09:36:36;;;;;;;10.35;2.85;;;27.10;71.50;;;;;;7403503;19;19922;-72
2023/09/02 09:39:04;;;;;;;6.47;3.47;;;27.20;71.40;;;;;;7399929;19;19934;-71
2023/09/02 09:41:31;;;;;;;8.15;1.67;;;27.20;70.20;;;;;;7400394;19;19978;-73
2023/09/02 09:44:02;;;;;;;7.05;1.60;;;27.20;70.10;;;;;;7403640;19;19919;-72
2023/09/02 09:46:28;;;;;;;6.65;1.58;;;27.10;69.60;;;;;;7400895;19;19982;-73
2023/09/02 09:49:00;;;;;;;5.97;1.60;;;27.00;69.50;;;;;;7401400;19;19918;-72
2023/09/02 09:51:26;;;;;;;;;;;27.00;69.00;;;;;;7403103;19;19918;-73
2023/09/02 09:53:53;;;;;;;8.40;2.53;;;26.90;70.00;;;;;;7398913;19;19958;-73
2023/09/02 09:56:18;;;;;;;6.47;2.17;;;27.00;69.60;;;;;;7401051;19;19925;-73
2023/09/02 09:58:46;;;;;;;7.18;2.83;;;27.40;68.90;;;;;;7401531;19;19922;-72
2023/09/02 10:01:24;;;;;;;7.05;1.75;;;27.90;67.00;;;;;;7400026;19;19990;-73
2023/09/02 10:03:51;;;;;;;;;;;27.60;66.20;;;;;;7403788;19;19914;-73
2023/09/02 10:06:21;;;;;;;6.63;1.63;;;27.30;66.20;;;;;;7399077;19;20212;-72
2023/09/02 10:08:54;;;;;;;7.88;2.35;;;27.30;67.00;;;;;;7399860;19;20267;-72
2023/09/02 10:11:24;;;;;;;7.15;2.65;;;27.50;67.00;;;;;;7401729;19;19933;-72
2023/09/02 10:13:54;;;;;;;6.40;2.55;;;27.50;67.30;;;;;;7400463;19;19921;-72
2023/09/02 10:16:22;;;;;;;4.72;2.17;;;27.40;67.70;;;;;;7398277;19;19927;-73
2023/09/02 10:18:49;;;;;;;6.93;2.85;;;27.60;68.10;;;;;;7398145;19;20374;-73
2023/09/02 10:21:16;;;;;;;6.05;2.50;;;27.70;67.50;;;;;;7398871;19;19911;-72
2023/09/02 10:23:49;;;;;;;7.07;2.03;;;27.30;68.00;;;;;;7401291;19;19918;-73
2023/09/02 10:26:23;;;;;;;8.38;2.15;;;27.40;68.80;;;;;;7398383;19;19907;-72
2023/09/02 10:28:50;;;;;;;8.70;2.22;;;27.60;68.70;;;;;;7402076;19;19910;-72
2023/09/02 10:31:25;;;;;;;5.85;1.98;;;27.60;67.90;;;;;;7398418;19;19926;-73
2023/09/02 10:34:24;;;;;;;4.28;2.65;;;27.50;67.90;;;;;;7398789;19;19929;-73
2023/09/02 10:36:57;;;;;;;8.13;2.38;;;27.40;67.90;;;;;;7401716;19;20339;-74
2023/09/02 10:39:47;;;;;;;5.72;1.73;;;27.20;68.00;;;;;;7398488;19;20235;-73
2023/09/02 10:42:15;;;;;;;6.13;2.38;;;27.00;68.50;;;;;;7399959;19;19925;-73
2023/09/02 10:44:42;;;;;;;5.63;2.53;;;27.00;69.00;;;;;;7400780;19;19952;-73
2023/09/02 10:47:08;;;;;;;6.60;2.28;;;26.90;69.30;;;;;;7398409;19;19935;-73
2023/09/02 10:49:35;;;;;;;6.07;2.35;;;26.90;68.90;;;;;;7401680;19;20261;-72
2023/09/02 10:52:01;;;;;;;7.93;2.33;;;26.80;68.60;;;;;;7402811;19;19915;-73
2023/09/02 10:55:00;;;;;;;6.60;1.63;;;26.70;69.50;;;;;;7398889;19;20570;-73
2023/09/02 10:57:26;;;;;;;7.80;1.77;;;26.60;70.20;;;;;;7396570;19;20346;-72
2023/09/02 11:00:15;;;;;;;8.88;1.75;;;26.10;71.60;;;;;;7399487;19;19914;-73
2023/09/02 11:02:42;;;;;;;6.90;1.60;;;26.10;72.40;;;;;;7401427;19;20277;-72
2023/09/02 11:05:08;;;;;;;7.75;2.17;;;26.10;73.30;;;;;;7400232;19;19914;-72
2023/09/02 11:07:35;;;;;;;7.13;2.88;;;26.10;73.80;;;;;;7401011;19;19932;-73
2023/09/02 11:10:03;;;;;;;7.20;2.03;;;26.10;74.50;;;;;;7400577;19;20347;-73
2023/09/02 11:12:29;;;;;;;7.95;1.85;;;26.20;74.60;;;;;;7399751;19;19922;-72
2023/09/02 11:15:11;;;;;;;6.75;1.60;;;26.20;74.50;;;;;;7401803;19;19923;-73
2023/09/02 11:17:39;;;;;;;8.02;1.80;;;25.90;75.60;;;;;;7398299;19;19947;-73
2023/09/02 11:20:13;;;;;;;7.95;2.05;;;25.80;76.20;;;;;;7400606;19;20266;-73
2023/09/02 11:22:50;;;;;;;5.85;2.03;;;25.60;77.20;;;;;;7397586;19;20251;-73
2023/09/02 11:25:26;;;;;;;8.60;2.10;;;25.60;77.90;;;;;;7399964;19;19978;-72
2023/09/02 11:27:53;;;;;;;8.55;2.55;;;25.80;77.40;;;;;;7398790;19;20015;-72
2023/09/02 11:30:19;;;;;;;8.95;2.53;;;25.90;76.30;;;;;;7398738;19;19920;-72
2023/09/02 11:32:45;;;;;;;5.32;1.85;;;26.10;74.90;;;;;;7397535;19;19926;-72
2023/09/02 11:35:15;;;;;;;;;;;26.10;74.70;;;;;;7391372;19;20013;-73
2023/09/02 11:37:41;;;;;;;7.13;1.88;;;26.40;74.10;;;;;;7399557;19;19923;-72
2023/09/02 11:40:13;;;;;;;6.72;2.03;;;26.10;73.00;;;;;;7400080;19;19933;-73
2023/09/02 11:43:06;;;;;;;6.50;2.40;;;26.10;73.20;;;;;;7398463;19;19943;-72
2023/09/02 11:45:34;;;;;;;5.43;1.88;;;25.80;74.00;;;;;;7405634;19;19934;-73
2023/09/02 11:48:02;;;;;;;7.32;1.63;;;25.90;74.10;;;;;;7404336;19;20034;-72
2023/09/02 11:50:29;;;;;;;9.75;2.10;;;25.80;73.80;;;;;;7405701;19;19994;-72
2023/09/02 11:53:05;;;;;;;6.60;1.75;;;25.70;72.10;;;;;;7403427;19;19930;-73
2023/09/02 11:55:32;;;;;;;6.18;1.92;;;25.80;73.00;;;;;;7405069;19;19930;-72
2023/09/02 11:58:05;;;;;;;5.82;2.00;;;25.90;73.30;;;;;;7406379;19;19921;-73
2023/09/02 12:00:31;;;;;;;6.25;1.60;;;26.10;72.80;;;;;;7404549;19;19911;-72
2023/09/02 12:02:59;;;;;;;6.50;1.88;;;26.10;72.10;;;;;;7407280;19;20468;-71
2023/09/02 12:05:25;;;;;;;6.95;1.83;;;26.20;71.60;;;;;;7403776;19;19922;-72
2023/09/02 12:07:51;;;;;;;6.93;1.85;;;26.40;71.10;;;;;;7407802;19;19919;-73
2023/09/02 12:10:18;;;;;;;6.47;2.45;;;26.60;70.30;;;;;;7404404;19;20373;-73
2023/09/02 12:12:48;;;;;;;9.52;2.90;;;26.80;69.10;;;;;;7406688;19;19926;-73
2023/09/02 12:15:19;;;;;;;6.38;2.70;;;27.00;68.60;;;;;;7404228;19;19943;-72
2023/09/02 12:17:46;;;;;;;7.28;3.10;;;27.20;67.40;;;;;;7404967;19;19927;-72
2023/09/02 12:20:14;;;;;;;5.88;2.60;;;27.30;67.00;;;;;;7403982;19;20043;-73
2023/09/02 12:22:42;;;;;;;5.88;2.13;;;27.60;65.40;;;;;;7405378;19;19938;-72
2023/09/02 12:25:15;;;;;;;9.90;2.17;;;27.40;65.60;;;;;;7370898;19;20331;-72
2023/09/02 12:27:41;;;;;;;7.43;2.08;;;27.20;66.60;;;;;;7401159;19;19947;-72
2023/09/02 12:30:08;;;;;;;9.93;2.40;;;27.00;67.80;;;;;;7402268;19;19935;-73
2023/09/02 12:32:34;;;;;;;9.38;2.20;;;26.90;69.00;;;;;;7404012;19;19915;-73
2023/09/02 12:35:10;;;;;;;7.60;3.20;;;26.90;68.40;;;;;;7405743;19;19930;-73
2023/09/02 12:37:37;;;;;;;9.43;3.30;;;27.30;67.70;;;;;;7401218;19;19926;-72
2023/09/02 12:40:14;;;;;;;7.78;3.08;;;27.20;67.10;;;;;;7402696;19;19918;-73
2023/09/02 12:42:41;;;;;;;8.88;2.83;;;27.00;66.80;;;;;;7403664;19;19943;-72
2023/09/02 12:45:08;;;;;;;7.90;2.40;;;27.00;67.30;;;;;;7349693;19;19918;-73
2023/09/02 12:47:36;;;;;;;6.75;1.90;;;26.60;66.90;;;;;;7401753;19;19915;-73
2023/09/02 12:50:03;;;;;;;6.00;2.20;;;26.60;68.20;;;;;;7373130;19;19930;-73
2023/09/02 12:52:30;;;;;;;6.63;2.15;;;26.50;68.60;;;;;;7401326;19;19934;-73